KCAK/CAK METAR and TAF weather

Enter ICAO airport designator
Station Type Date Time Source
KCAK METAR 2020/07/10 15:51 UTC NOAA

KCAK 101551Z 23011KT 10SM FEW042 32/22 A2986 RMK AO2 SLP099 T03220217


Station Type Date Time Source
KCAK Decoded METAR 2020/07/10 15:51 UTC NOAA

AKRON-CANTON REGIONAL AIRPORT , OH, United States (KCAK) 40-55N 081-27W 377M
Jul 10, 2020 - 11:51 AM EDT / 2020.07.10 1551 UTC
Wind: from the SW (230 degrees) at 13 MPH (11 KT):0
Visibility: 10 mile(s):0
Sky conditions: mostly clear
Temperature: 90.0 F (32.2 C)
Heat index: 96.1 F (35.6 C):1
Dew Point: 71.1 F (21.7 C)
Relative Humidity: 53%
Pressure (altimeter): 29.86 in. Hg (1011 hPa)
ob: KCAK 101551Z 23011KT 10SM FEW042 32/22 A2986 RMK AO2 SLP099 T03220217
cycle: 16

Station Type Date Time Source
KCAK TAF 2020/07/10 12:22 UTC NOAA

TAF KCAK 101120Z 1012/1112 VRB03KT P6SM SKC
FM101900 22006KT P6SM VCTS SCT050CB
TEMPO 1020/1024 1SM -TSRA BKN025CB
FM110000 25006KT P6SM VCSH BKN035

Example: see airport list